Time;durP1;ratioP1;P1;durP2;ratioP2;P2;SDS_P1;SDS_P2;PMS_P1;PMS_P2;Temp;Humidity;BMP_temperature;BMP_pressure;BME280_temperature;BME280_humidity;BME280_pressure;Samples;Min_cycle;Max_cycle;Signal;HPM_P1;HPM_P2
2023/05/28 00:01:48;;;;;;;30.13;12.60;;;;;;;12.48;89.02;102154.03;10295430;28;20045;-73
2023/05/28 00:06:49;;;;;;;32.10;11.23;;;;;;;12.49;87.60;102149.44;10309577;28;20034;-73
2023/05/28 00:11:49;;;;;;;26.90;12.27;;;;;;;12.46;88.36;102139.78;10294376;28;20051;-73
2023/05/28 00:16:50;;;;;;;34.80;14.52;;;;;;;12.49;91.46;102135.88;10295030;28;20027;-73
2023/05/28 00:21:51;;;;;;;36.53;12.68;;;;;;;12.50;89.76;102122.09;10292914;28;20042;-73
2023/05/28 00:26:51;;;;;;;29.40;13.18;;;;;;;12.47;90.38;102122.44;10294160;28;20046;-73
2023/05/28 00:31:55;;;;;;;28.42;14.55;;;;;;;12.50;92.14;102118.53;10295257;28;20493;-73
2023/05/28 00:36:55;;;;;;;27.52;13.82;;;;;;;12.46;94.14;102112.63;10308546;28;20106;-74
2023/05/28 00:42:02;;;;;;;32.78;14.15;;;;;;;12.44;95.67;102109.22;10294698;28;20097;-73
2023/05/28 00:47:03;;;;;;;26.15;12.70;;;;;;;12.38;93.45;102115.41;10308150;28;20117;-73
2023/05/28 00:52:03;;;;;;;25.23;13.15;;;;;;;12.39;93.28;102113.53;10308212;28;20501;-73
2023/05/28 00:57:04;;;;;;;28.63;15.27;;;;;;;12.38;94.07;102106.38;10308147;28;20035;-73
2023/05/28 01:02:05;;;;;;;27.10;12.82;;;;;;;12.33;94.55;102104.22;10292534;28;20050;-73
2023/05/28 01:07:05;;;;;;;39.15;15.63;;;;;;;12.26;95.23;102100.53;10292347;28;20385;-73
2023/05/28 01:12:06;;;;;;;32.30;15.70;;;;;;;12.21;93.88;102106.50;10293959;28;20168;-73
2023/05/28 01:17:07;;;;;;;25.67;15.27;;;;;;;12.17;94.14;102104.31;10308756;28;20043;-73
2023/05/28 01:22:08;;;;;;;34.50;14.00;;;;;;;12.14;94.44;102102.81;10299163;28;20039;-73
2023/05/28 01:27:09;;;;;;;31.05;13.68;;;;;;;12.04;92.92;102105.75;10284666;28;20070;-73
2023/05/28 01:32:09;;;;;;;25.52;10.90;;;;;;;12.01;93.10;102113.41;10301585;28;20485;-73
2023/05/28 01:37:10;;;;;;;28.02;13.88;;;;;;;11.93;93.51;102110.72;10315953;28;20117;-73
2023/05/28 01:42:11;;;;;;;44.00;14.20;;;;;;;11.91;93.34;102112.78;10282941;28;20059;-73
2023/05/28 01:47:11;;;;;;;30.42;13.52;;;;;;;11.85;93.39;102107.03;10298620;28;20031;-73
2023/05/28 01:52:13;;;;;;;25.75;14.50;;;;;;;11.82;93.67;102098.34;10298571;28;20529;-73
2023/05/28 01:57:14;;;;;;;26.35;11.82;;;;;;;11.78;93.35;102100.56;10315221;28;20042;-73
2023/05/28 02:02:15;;;;;;;27.20;14.02;;;;;;;11.74;94.10;102101.09;10301715;28;20394;-73
2023/05/28 02:07:15;;;;;;;30.27;13.02;;;;;;;11.66;93.49;102101.97;10282076;28;20026;-73
2023/05/28 02:12:16;;;;;;;26.58;13.27;;;;;;;11.55;93.67;102100.50;10314687;28;20051;-73
2023/05/28 02:17:17;;;;;;;19.30;11.73;;;;;;;11.52;93.66;102089.13;10316072;28;20479;-73
2023/05/28 02:22:17;;;;;;;27.45;15.43;;;;;;;11.47;94.62;102091.53;10283930;28;20397;-73
2023/05/28 02:27:19;;;;;;;26.83;14.25;;;;;;;11.45;94.04;102096.28;10300119;28;20035;-73
2023/05/28 02:32:21;;;;;;;26.38;12.88;;;;;;;11.38;94.08;102096.97;10298094;28;20089;-73
2023/05/28 02:37:23;;;;;;;34.20;13.63;;;;;;;11.34;94.09;102094.78;10281021;28;20041;-73
2023/05/28 02:42:24;;;;;;;26.23;14.45;;;;;;;11.31;94.55;102100.56;10297758;28;20038;-73
2023/05/28 02:47:24;;;;;;;23.63;13.48;;;;;;;11.29;94.39;102103.44;10297115;28;20031;-73
2023/05/28 02:52:25;;;;;;;46.78;14.30;;;;;;;11.29;95.64;102111.56;10297713;28;20050;-73
2023/05/28 02:57:25;;;;;;;19.17;13.02;;;;;;;11.25;96.51;102102.09;10279640;28;20130;-73
2023/05/28 03:02:26;;;;;;;41.08;16.15;;;;;;;11.26;99.38;102102.94;10312250;28;20110;-73
2023/05/28 03:07:26;;;;;;;23.90;14.10;;;;;;;11.21;98.03;102114.31;10296575;28;20089;-72
2023/05/28 03:12:26;;;;;;;30.10;14.77;;;;;;;11.15;97.56;102106.84;10296403;28;20058;-73
2023/05/28 03:17:27;;;;;;;26.30;13.27;;;;;;;11.08;97.04;102106.69;10297372;28;20047;-73
2023/05/28 03:22:27;;;;;;;26.83;14.13;;;;;;;11.04;100.00;102107.19;10279227;28;20066;-73
2023/05/28 03:27:28;;;;;;;24.27;14.88;;;;;;;11.04;98.09;102118.03;10311115;28;20457;-73
2023/05/28 03:32:28;;;;;;;36.25;16.98;;;;;;;11.01;98.80;102115.66;10296534;28;20031;-73
2023/05/28 03:37:29;;;;;;;28.52;15.05;;;;;;;11.02;99.28;102115.50;10311207;28;20406;-73
2023/05/28 03:42:29;;;;;;;28.42;14.80;;;;;;;11.02;99.22;102111.97;10295106;28;20042;-73
2023/05/28 03:47:31;;;;;;;28.02;13.80;;;;;;;11.02;100.00;102103.84;10263165;28;20035;-73
2023/05/28 03:52:32;;;;;;;29.33;15.20;;;;;;;11.06;99.63;102116.84;10296128;28;20022;-73
2023/05/28 03:57:32;;;;;;;25.20;13.85;;;;;;;11.07;99.97;102105.00;10311849;28;20027;-73
2023/05/28 04:02:32;;;;;;;25.10;15.60;;;;;;;11.10;100.00;102122.78;10295026;28;20039;-73
2023/05/28 04:07:33;;;;;;;24.90;15.10;;;;;;;11.13;100.00;102119.72;10293609;28;20042;-73
2023/05/28 04:12:33;;;;;;;24.77;14.30;;;;;;;11.17;100.00;102138.22;10309935;28;20134;-73
2023/05/28 04:17:34;;;;;;;36.15;15.57;;;;;;;11.26;100.00;102140.91;10294368;28;20047;-73
2023/05/28 04:22:34;;;;;;;24.73;15.27;;;;;;;11.35;100.00;102138.00;10296390;28;20058;-73
2023/05/28 04:27:35;;;;;;;28.20;14.75;;;;;;;11.44;100.00;102141.53;10295570;28;20378;-73
2023/05/28 04:32:35;;;;;;;20.65;14.05;;;;;;;11.55;100.00;102141.19;10276745;28;20090;-73
2023/05/28 04:37:39;;;;;;;29.50;14.52;;;;;;;11.67;100.00;102140.81;10293586;28;20066;-73
2023/05/28 04:42:40;;;;;;;31.85;13.80;;;;;;;11.77;100.00;102136.03;10307954;28;20038;-72
2023/05/28 04:47:40;;;;;;;25.45;14.32;;;;;;;12.42;100.00;102133.03;10308721;28;20196;-73
2023/05/28 04:52:41;;;;;;;21.80;13.90;;;;;;;13.03;100.00;102131.19;10275777;28;20038;-73
2023/05/28 04:57:41;;;;;;;21.05;13.52;;;;;;;13.49;100.00;102130.25;10293302;28;20073;-73
2023/05/28 05:02:41;;;;;;;33.60;14.25;;;;;;;13.83;100.00;102137.88;10293703;28;20374;-73
2023/05/28 05:07:42;;;;;;;33.78;14.48;;;;;;;14.18;100.00;102135.38;10292758;28;20186;-73
2023/05/28 05:12:42;;;;;;;22.40;12.15;;;;;;;14.44;100.00;102140.28;10292737;28;20054;-73
2023/05/28 05:17:43;;;;;;;21.65;12.70;;;;;;;14.56;100.00;102137.94;10293796;28;20450;-73
2023/05/28 05:22:43;;;;;;;20.27;10.70;;;;;;;14.81;100.00;102149.31;10293150;28;20046;-73
2023/05/28 05:27:43;;;;;;;20.30;11.23;;;;;;;15.38;100.00;102142.00;10291147;28;20078;-73
2023/05/28 05:32:44;;;;;;;16.75;8.82;;;;;;;15.66;100.00;102144.72;10291862;28;20391;-73
2023/05/28 05:37:45;;;;;;;26.33;10.10;;;;;;;15.84;100.00;102147.81;10293410;28;20074;-73
2023/05/28 05:42:45;;;;;;;21.00;10.20;;;;;;;16.10;100.00;102147.06;10276642;28;20035;-73
2023/05/28 05:47:46;;;;;;;26.55;9.98;;;;;;;16.21;100.00;102145.66;10307078;28;20035;-73
2023/05/28 05:52:46;;;;;;;17.63;9.40;;;;;;;16.65;100.00;102147.03;10292228;28;20051;-73
2023/05/28 05:57:49;;;;;;;17.40;8.75;;;;;;;16.53;100.00;102152.28;10293792;28;20070;-73
2023/05/28 06:02:50;;;;;;;18.38;9.32;;;;;;;16.07;100.00;102142.03;10293007;28;20454;-73
2023/05/28 06:07:50;;;;;;;19.17;8.98;;;;;;;16.79;100.00;102150.69;10297604;28;20031;-73
2023/05/28 06:12:51;;;;;;;23.40;9.65;;;;;;;17.60;100.00;102148.53;10299509;28;20054;-73
2023/05/28 06:17:51;;;;;;;15.18;8.57;;;;;;;18.52;100.00;102143.78;10298954;28;20034;-73
2023/05/28 06:22:51;;;;;;;24.45;10.57;;;;;;;18.72;100.00;102140.06;10281544;28;20046;-73
2023/05/28 06:27:52;;;;;;;19.08;8.63;;;;;;;18.99;100.00;102147.09;10282473;28;20469;-73
2023/05/28 06:32:52;;;;;;;21.25;9.02;;;;;;;19.24;100.00;102141.59;10298537;28;20035;-73
2023/05/28 06:37:53;;;;;;;12.40;6.97;;;;;;;18.88;100.00;102147.78;10282565;28;20053;-74
2023/05/28 06:42:53;;;;;;;19.30;7.35;;;;;;;18.25;100.00;102154.06;10298136;28;20446;-73
2023/05/28 06:47:53;;;;;;;10.48;7.25;;;;;;;18.86;98.96;102146.31;10280474;28;20069;-73
2023/05/28 06:52:54;;;;;;;24.52;9.25;;;;;;;19.78;94.90;102138.31;10281219;28;20121;-73
2023/05/28 06:57:54;;;;;;;21.38;7.97;;;;;;;20.40;93.38;102139.03;10298422;28;20084;-73
2023/05/28 07:02:55;;;;;;;10.13;6.70;;;;;;;20.93;86.99;102143.78;10297234;28;20047;-73
2023/05/28 07:07:55;;;;;;;19.00;7.45;;;;;;;21.65;86.49;102156.53;10279335;28;20042;-73
2023/05/28 07:12:56;;;;;;;20.23;8.55;;;;;;;22.34;83.82;102159.41;10279173;28;20055;-73
2023/05/28 07:17:56;;;;;;;15.75;9.02;;;;;;;22.61;80.50;102166.00;10296420;28;20045;-73
2023/05/28 07:22:56;;;;;;;15.90;5.90;;;;;;;22.93;74.11;102157.19;10296331;28;20070;-73
2023/05/28 07:27:57;;;;;;;21.83;7.47;;;;;;;22.88;73.32;102170.91;10279367;28;20050;-75
2023/05/28 07:32:57;;;;;;;16.95;7.97;;;;;;;23.35;73.09;102168.69;10295450;28;20445;-74
2023/05/28 07:37:58;;;;;;;15.52;6.63;;;;;;;23.63;68.39;102172.41;10297064;28;20034;-74
2023/05/28 07:42:58;;;;;;;20.02;7.38;;;;;;;23.59;69.51;102168.50;10296294;28;20038;-74
2023/05/28 07:47:58;;;;;;;18.77;7.05;;;;;;;23.59;62.42;102174.03;10277784;28;20072;-74
2023/05/28 07:53:01;;;;;;;13.85;8.02;;;;;;;24.17;62.40;102172.63;10294763;28;20109;-74
2023/05/28 07:58:02;;;;;;;10.82;6.35;;;;;;;24.36;62.07;102168.44;10294969;28;20101;-74
2023/05/28 08:03:03;;;;;;;7.10;6.13;;;;;;;24.79;59.75;102171.38;10294678;28;20371;-74
2023/05/28 08:08:03;;;;;;;11.93;6.82;;;;;;;25.10;58.29;102175.28;10295062;28;20039;-74
2023/05/28 08:13:03;;;;;;;18.30;6.45;;;;;;;25.29;57.02;102173.78;10278436;28;20059;-74
2023/05/28 08:18:04;;;;;;;15.88;7.00;;;;;;;25.24;52.28;102168.22;10294200;28;20027;-74
2023/05/28 08:23:05;;;;;;;12.45;6.50;;;;;;;24.24;53.39;102173.25;10276212;28;20389;-74
2023/05/28 08:28:09;;;;;;;7.22;5.00;;;;;;;23.68;57.80;102172.50;10293179;28;20034;-74
2023/05/28 08:33:09;;;;;;;9.00;6.93;;;;;;;23.48;56.96;102173.00;10278410;28;20046;-74
2023/05/28 08:38:10;;;;;;;10.88;5.40;;;;;;;23.65;56.46;102167.47;10276702;28;20097;-74
2023/05/28 08:43:10;;;;;;;12.88;6.07;;;;;;;24.93;55.91;102161.56;10293962;28;20390;-74
2023/05/28 08:48:11;;;;;;;12.13;6.15;;;;;;;24.94;53.30;102159.63;10276183;28;20110;-74
2023/05/28 08:53:13;;;;;;;15.50;5.30;;;;;;;24.77;52.10;102163.34;10259976;28;20031;-74
2023/05/28 08:58:14;;;;;;;14.35;6.45;;;;;;;24.77;52.17;102166.13;10275388;28;20031;-74
2023/05/28 09:03:14;;;;;;;22.77;5.90;;;;;;;24.08;54.36;102165.88;10292855;28;20193;-72
2023/05/28 09:08:15;;;;;;;9.95;6.40;;;;;;;24.56;52.48;102153.16;10260521;28;20041;-78
2023/05/28 09:13:19;;;;;;;10.88;5.28;;;;;;;24.86;49.33;102158.19;10293185;28;20059;-73
2023/05/28 09:18:20;;;;;;;11.77;5.25;;;;;;;25.47;50.15;102155.91;10276294;28;20031;-74
2023/05/28 09:23:21;;;;;;;10.77;5.55;;;;;;;25.50;48.54;102160.09;10292561;28;20035;-74
2023/05/28 09:28:25;;;;;;;12.55;6.35;;;;;;;25.52;49.09;102152.31;10292819;28;20125;-77
2023/05/28 09:33:26;;;;;;;15.20;5.50;;;;;;;25.93;47.15;102153.41;10293461;28;20062;-78
2023/05/28 09:38:27;;;;;;;5.55;4.38;;;;;;;26.02;48.84;102162.06;10275335;28;20065;-77
2023/05/28 09:43:30;;;;;;;8.43;6.15;;;;;;;25.89;48.96;102148.69;10283929;28;20465;-79
2023/05/28 09:48:30;;;;;;;9.25;4.78;;;;;;;26.81;48.11;102162.88;10301340;28;20121;-74
2023/05/28 09:53:36;;;;;;;16.50;7.15;;;;;;;27.45;45.03;102167.88;10283062;28;20118;-74
2023/05/28 09:58:36;;;;;;;9.30;5.18;;;;;;;27.08;42.74;102157.84;10282944;28;20138;-73
2023/05/28 10:03:38;;;;;;;9.93;6.32;;;;;;;26.54;44.22;102158.34;10266243;28;20119;-73
2023/05/28 10:08:38;;;;;;;8.75;6.10;;;;;;;26.69;42.55;102162.28;10265955;28;20033;-75
2023/05/28 10:13:39;;;;;;;6.10;5.50;;;;;;;25.96;45.29;102157.59;10265471;28;20047;-73
2023/05/28 10:18:41;;;;;;;19.02;6.72;;;;;;;26.29;45.14;102166.59;10298738;28;20039;-73
2023/05/28 10:23:42;;;;;;;12.15;6.00;;;;;;;26.77;42.55;102167.28;10280923;28;20030;-73
2023/05/28 10:28:42;;;;;;;12.32;5.70;;;;;;;26.68;42.37;102164.22;10280573;28;20023;-75
2023/05/28 10:33:43;;;;;;;11.20;5.68;;;;;;;27.03;40.51;102166.22;10264999;28;20035;-77
2023/05/28 10:38:52;;;;;;;13.52;5.35;;;;;;;26.98;44.00;102157.84;10280579;28;20126;-75
2023/05/28 10:43:53;;;;;;;7.40;6.15;;;;;;;27.42;39.60;102159.25;10298288;28;20389;-80
2023/05/28 10:49:09;;;;;;;5.72;4.38;;;;;;;27.50;39.43;102162.28;10241443;28;20043;-81
2023/05/28 10:54:23;;;;;;;14.07;4.00;;;;;;;28.21;40.35;102157.63;10297499;28;20482;-82
2023/05/28 10:59:45;;;;;;;6.03;4.50;;;;;;;28.70;41.52;102157.63;10299083;28;20038;-81
2023/05/28 11:04:49;;;;;;;8.10;5.50;;;;;;;29.14;37.18;102158.72;10299565;28;20026;-81
2023/05/28 11:09:51;;;;;;;10.82;6.20;;;;;;;28.48;38.18;102158.06;10265596;28;20037;-81
2023/05/28 11:14:52;;;;;;;15.75;6.78;;;;;;;27.61;40.10;102156.72;10281588;28;20106;-81
2023/05/28 11:19:53;;;;;;;9.90;5.93;;;;;;;27.83;39.92;102157.25;10283787;28;20063;-82
2023/05/28 11:24:58;;;;;;;13.00;5.75;;;;;;;27.15;37.35;102152.03;10296496;28;20426;-81
2023/05/28 11:29:59;;;;;;;14.73;5.35;;;;;;;26.65;40.43;102154.50;10314150;28;20050;-82
2023/05/28 11:35:00;;;;;;;12.13;5.65;;;;;;;26.88;39.24;102152.28;10325337;28;20039;-81
2023/05/28 11:40:05;;;;;;;11.10;5.63;;;;;;;27.28;38.74;102161.75;10274143;28;20414;-81
2023/05/28 11:45:06;;;;;;;10.90;5.22;;;;;;;28.25;39.71;102155.94;10280996;28;20126;-81
2023/05/28 11:50:11;;;;;;;6.43;5.35;;;;;;;28.14;38.13;102162.66;10280005;28;20037;-79
2023/05/28 11:55:11;;;;;;;9.10;5.40;;;;;;;26.87;37.39;102150.63;10296485;28;20035;-79
2023/05/28 12:00:15;;;;;;;11.38;5.88;;;;;;;26.60;37.42;102142.53;10278201;28;20039;-81
2023/05/28 12:05:16;;;;;;;6.43;5.60;;;;;;;26.55;37.99;102148.94;10278442;28;20035;-79
2023/05/28 12:10:21;;;;;;;5.70;5.20;;;;;;;27.21;37.23;102136.19;10277771;28;20062;-80
2023/05/28 12:15:27;;;;;;;20.30;6.22;;;;;;;27.50;38.45;102148.38;10294403;28;20497;-80
2023/05/28 12:20:37;;;;;;;13.68;5.20;;;;;;;26.72;36.12;102145.88;10294412;28;20046;-80
2023/05/28 12:25:44;;;;;;;8.93;5.75;;;;;;;26.67;38.29;102143.97;10277293;28;20035;-80
2023/05/28 12:30:45;;;;;;;12.35;4.75;;;;;;;27.58;37.43;102149.75;10294988;28;20118;-79
2023/05/28 12:35:46;;;;;;;12.90;6.47;;;;;;;27.58;35.41;102139.47;10303476;28;20034;-81
2023/05/28 12:40:46;;;;;;;11.20;4.80;;;;;;;28.16;36.25;102136.19;10287633;28;20043;-82
2023/05/28 12:45:46;;;;;;;7.72;4.15;;;;;;;27.79;33.95;102133.84;10295358;28;20171;-78
2023/05/28 12:50:47;;;;;;;10.02;4.82;;;;;;;26.53;35.82;102120.59;10277258;28;20156;-79
2023/05/28 12:55:47;;;;;;;6.28;4.72;;;;;;;26.98;36.52;102132.84;10282450;28;20042;-78
2023/05/28 13:00:48;;;;;;;12.20;4.43;;;;;;;26.98;35.54;102132.00;10301746;28;20047;-82
2023/05/28 13:05:49;;;;;;;11.40;5.22;;;;;;;26.67;36.13;102130.06;10298984;28;20462;-83
2023/05/28 13:10:50;;;;;;;9.00;3.72;;;;;;;26.98;35.58;102124.50;10297654;28;20122;-83
2023/05/28 13:15:50;;;;;;;7.13;3.92;;;;;;;27.06;32.93;102131.47;10299120;28;20393;-83
2023/05/28 13:20:50;;;;;;;5.18;3.78;;;;;;;26.05;35.25;102116.28;10302964;28;20035;-82
2023/05/28 13:25:51;;;;;;;6.80;3.72;;;;;;;26.38;35.35;102114.97;10285744;28;20138;-81
2023/05/28 13:30:51;;;;;;;9.75;4.40;;;;;;;26.01;33.12;102116.00;10302349;28;20067;-78
2023/05/28 13:35:51;;;;;;;6.15;3.83;;;;;;;26.32;36.97;102118.84;10301717;28;20105;-80
2023/05/28 13:40:52;;;;;;;9.82;4.50;;;;;;;26.47;33.87;102116.09;10301915;28;20062;-78
2023/05/28 13:45:52;;;;;;;5.22;3.95;;;;;;;26.10;35.09;102119.03;10283386;28;20379;-79
2023/05/28 13:50:53;;;;;;;10.50;5.30;;;;;;;26.37;36.86;102114.13;10304583;28;20039;-80
2023/05/28 13:55:54;;;;;;;6.88;4.68;;;;;;;26.51;36.17;102116.41;10312957;28;20035;-80
2023/05/28 14:00:54;;;;;;;14.35;5.18;;;;;;;26.89;34.46;102107.53;10306954;28;20043;-79
2023/05/28 14:05:55;;;;;;;5.68;4.03;;;;;;;26.56;34.95;102114.47;10286137;28;20366;-80
2023/05/28 14:10:55;;;;;;;13.27;4.82;;;;;;;26.45;34.40;102115.53;10283835;28;20038;-83
2023/05/28 14:15:56;;;;;;;4.75;3.97;;;;;;;26.03;37.34;102113.75;10308615;28;20082;-84
2023/05/28 14:20:56;;;;;;;5.75;3.88;;;;;;;25.66;34.68;102116.63;10326443;28;20026;-83
2023/05/28 14:25:58;;;;;;;4.55;4.10;;;;;;;25.45;35.33;102112.91;10303184;28;20073;-83
2023/05/28 14:30:58;;;;;;;7.07;4.60;;;;;;;25.58;37.69;102106.03;10287706;28;20042;-77
2023/05/28 14:35:58;;;;;;;5.28;4.15;;;;;;;25.44;37.09;102114.00;10303024;28;20459;-79
2023/05/28 14:40:59;;;;;;;6.93;4.00;;;;;;;25.43;36.64;102115.94;10284080;28;20043;-82
2023/05/28 14:45:59;;;;;;;9.20;5.82;;;;;;;25.17;36.48;102111.31;10286276;28;20054;-80
2023/05/28 14:51:01;;;;;;;7.05;4.53;;;;;;;24.94;36.71;102102.25;10298343;28;20042;-79
2023/05/28 14:56:01;;;;;;;5.80;4.07;;;;;;;24.94;36.07;102106.97;10221669;28;20565;-81
2023/05/28 15:01:02;;;;;;;6.10;3.85;;;;;;;24.81;34.04;102113.78;10281786;28;20129;-82
2023/05/28 15:06:02;;;;;;;8.10;4.40;;;;;;;24.45;35.10;102121.75;10297398;28;20471;-82
2023/05/28 15:11:03;;;;;;;8.63;3.30;;;;;;;24.25;34.54;102108.50;10298293;28;20043;-80
2023/05/28 15:16:03;;;;;;;10.13;2.90;;;;;;;24.14;33.38;102115.03;10264464;28;20061;-80
2023/05/28 15:21:04;;;;;;;7.05;3.92;;;;;;;23.75;35.08;102106.81;10298221;28;20042;-82
2023/05/28 15:26:04;;;;;;;8.35;3.63;;;;;;;23.82;35.08;102112.97;10298749;28;20031;-82
2023/05/28 15:31:05;;;;;;;5.53;2.97;;;;;;;24.02;36.16;102103.25;10281304;28;20045;-81
2023/05/28 15:36:06;;;;;;;7.18;3.13;;;;;;;24.23;36.29;102102.41;10297596;28;20038;-81
2023/05/28 15:41:06;;;;;;;6.28;3.30;;;;;;;24.14;36.77;102101.19;10296097;28;20041;-81
2023/05/28 15:46:07;;;;;;;8.45;3.55;;;;;;;24.03;36.70;102093.88;10279293;28;20065;-79
2023/05/28 15:51:07;;;;;;;5.32;2.83;;;;;;;23.49;38.03;102102.81;10296931;28;20038;-82
2023/05/28 15:56:08;;;;;;;3.70;3.45;;;;;;;23.54;38.12;102097.34;10280011;28;20470;-82
2023/05/28 16:01:09;;;;;;;3.97;3.22;;;;;;;23.19;38.95;102106.78;10297287;28;20104;-81
2023/05/28 16:06:10;;;;;;;6.45;3.80;;;;;;;23.16;38.71;102107.31;10278895;28;20043;-81
2023/05/28 16:11:14;;;;;;;4.28;3.72;;;;;;;23.14;39.21;102103.97;10297964;28;20038;-82
2023/05/28 16:16:14;;;;;;;9.45;4.72;;;;;;;22.97;41.06;102106.75;10299996;28;20087;-80
2023/05/28 16:21:15;;;;;;;12.85;5.30;;;;;;;22.14;45.09;102113.72;10289514;28;20107;-79
2023/05/28 16:26:15;;;;;;;7.93;4.43;;;;;;;21.55;45.77;102107.53;10295625;28;20061;-82
2023/05/28 16:31:17;;;;;;;9.15;4.60;;;;;;;21.13;46.82;102111.22;10278241;28;20402;-81
2023/05/28 16:36:17;;;;;;;17.85;4.32;;;;;;;20.78;48.00;102111.16;10276895;28;20129;-81
2023/05/28 16:41:17;;;;;;;7.43;4.65;;;;;;;20.50;49.84;102116.44;10261409;28;20054;-82
2023/05/28 16:46:18;;;;;;;11.70;5.05;;;;;;;20.29;52.10;102112.28;10293954;28;20494;-82
2023/05/28 16:51:19;;;;;;;7.68;3.80;;;;;;;20.23;51.19;102119.59;10293317;28;20027;-81
2023/05/28 16:56:21;;;;;;;6.32;4.10;;;;;;;20.03;50.98;102125.31;10294158;28;20034;-82
2023/05/28 17:01:22;;;;;;;5.07;4.00;;;;;;;19.81;51.13;102121.38;10277006;28;20105;-81
2023/05/28 17:06:22;;;;;;;7.65;3.67;;;;;;;19.70;51.56;102144.97;10294763;28;20109;-82
2023/05/28 17:11:23;;;;;;;5.18;3.38;;;;;;;19.45;51.67;102144.97;10296059;28;20445;-81
2023/05/28 17:16:23;;;;;;;9.50;3.88;;;;;;;19.34;52.55;102143.00;10280027;28;20086;-82
2023/05/28 17:21:24;;;;;;;3.70;3.42;;;;;;;19.19;54.35;102141.41;10299236;28;20042;-81
2023/05/28 17:26:25;;;;;;;12.93;3.78;;;;;;;19.00;54.03;102148.75;10283346;28;20466;-81
2023/05/28 17:31:25;;;;;;;11.10;3.90;;;;;;;18.69;57.25;102152.31;10300670;28;20094;-82
2023/05/28 17:36:26;;;;;;;10.32;3.50;;;;;;;18.75;55.54;102156.94;10296096;28;20039;-80
2023/05/28 17:41:27;;;;;;;7.47;3.75;;;;;;;18.49;60.14;102155.19;10295548;28;20109;-82
2023/05/28 17:46:34;;;;;;;5.72;3.53;;;;;;;18.34;59.41;102168.34;10278315;28;20117;-83
2023/05/28 17:51:35;;;;;;;5.18;3.38;;;;;;;18.18;60.26;102183.38;10295127;28;20031;-80
2023/05/28 17:56:35;;;;;;;3.90;3.42;;;;;;;18.09;61.58;102181.94;10277921;28;20038;-83
2023/05/28 18:01:36;;;;;;;13.38;4.70;;;;;;;18.08;59.48;102188.50;10279024;28;20038;-80
2023/05/28 18:06:37;;;;;;;17.48;4.07;;;;;;;17.74;65.07;102187.72;10301106;28;20039;-82
2023/05/28 18:11:37;;;;;;;5.18;3.60;;;;;;;17.57;63.61;102186.47;10283667;28;20042;-82
2023/05/28 18:16:37;;;;;;;4.60;4.18;;;;;;;17.29;68.67;102190.25;10300137;28;20055;-81
2023/05/28 18:21:38;;;;;;;9.27;4.95;;;;;;;17.21;70.82;102204.19;10285260;28;20066;-81
2023/05/28 18:26:38;;;;;;;6.25;3.78;;;;;;;17.01;70.81;102198.69;10302551;28;20074;-81
2023/05/28 18:31:40;;;;;;;9.65;4.57;;;;;;;16.84;76.86;102195.50;10284877;28;20041;-82
2023/05/28 18:36:41;;;;;;;12.38;5.97;;;;;;;16.75;78.08;102204.94;10302308;28;20066;-81
2023/05/28 18:41:41;;;;;;;9.45;5.13;;;;;;;16.56;77.61;102211.16;10303527;28;20047;-81
2023/05/28 18:46:42;;;;;;;10.90;4.95;;;;;;;16.44;75.90;102210.94;10295812;28;20030;-80
2023/05/28 18:51:45;;;;;;;11.13;5.65;;;;;;;16.25;82.22;102227.03;10325042;28;20039;-81
2023/05/28 18:56:45;;;;;;;11.52;5.88;;;;;;;16.01;84.87;102219.31;10294558;28;20410;-82
2023/05/28 19:01:46;;;;;;;12.15;6.28;;;;;;;15.84;86.40;102234.38;10292721;28;20093;-82
2023/05/28 19:06:48;;;;;;;16.08;7.18;;;;;;;15.70;91.58;102244.38;10289669;28;20034;-81
2023/05/28 19:11:48;;;;;;;13.10;6.00;;;;;;;15.65;86.69;102257.72;10303918;28;20039;-80
2023/05/28 19:16:49;;;;;;;20.20;6.82;;;;;;;15.45;92.83;102271.22;10306208;28;20059;-81
2023/05/28 19:21:49;;;;;;;8.68;6.38;;;;;;;15.26;93.15;102279.00;10306642;28;20062;-82
2023/05/28 19:26:50;;;;;;;6.65;6.03;;;;;;;15.13;94.75;102265.25;10307676;28;20437;-83
2023/05/28 19:31:52;;;;;;;16.73;7.88;;;;;;;14.96;97.15;102291.91;10270983;28;20023;-81
2023/05/28 19:36:52;;;;;;;19.83;7.82;;;;;;;14.80;98.53;102287.53;10305037;28;20034;-79
2023/05/28 19:41:53;;;;;;;22.20;8.40;;;;;;;14.67;98.54;102281.06;10303496;28;20039;-80
2023/05/28 19:46:54;;;;;;;10.73;7.75;;;;;;;14.47;100.00;102287.09;10304268;28;20066;-83
2023/05/28 19:51:55;;;;;;;10.70;7.95;;;;;;;14.42;99.46;102300.41;10312203;28;20042;-81
2023/05/28 19:56:55;;;;;;;14.27;8.27;;;;;;;14.33;100.00;102316.06;10304145;28;20034;-82
2023/05/28 20:01:55;;;;;;;16.08;8.48;;;;;;;14.19;100.00;102309.53;10301945;28;20381;-82
2023/05/28 20:06:56;;;;;;;12.20;8.45;;;;;;;14.12;100.00;102311.31;10282579;28;20460;-80
2023/05/28 20:11:56;;;;;;;13.20;7.97;;;;;;;14.05;100.00;102323.16;10298228;28;20043;-81
2023/05/28 20:16:57;;;;;;;7.80;6.97;;;;;;;13.94;100.00;102324.44;10282614;28;20051;-83
2023/05/28 20:21:57;;;;;;;11.90;7.85;;;;;;;13.81;100.00;102332.41;10281933;28;20054;-82
2023/05/28 20:26:57;;;;;;;14.55;6.72;;;;;;;13.80;100.00;102334.28;10281356;28;20047;-83
2023/05/28 20:31:58;;;;;;;22.02;8.18;;;;;;;13.80;100.00;102331.56;10281051;28;20066;-82
2023/05/28 20:37:02;;;;;;;14.40;7.15;;;;;;;13.66;100.00;102330.50;10298860;28;20140;-81
2023/05/28 20:42:03;;;;;;;8.38;7.10;;;;;;;13.57;100.00;102339.75;10297165;28;20098;-81
2023/05/28 20:47:04;;;;;;;12.40;6.82;;;;;;;13.47;100.00;102350.03;10296380;28;20046;-81
2023/05/28 20:52:04;;;;;;;16.33;5.25;;;;;;;13.31;100.00;102355.59;10279645;28;20070;-82
2023/05/28 20:57:09;;;;;;;8.15;6.22;;;;;;;13.22;100.00;102347.44;10297802;28;20121;-82
2023/05/28 21:02:09;;;;;;;8.25;6.15;;;;;;;13.13;100.00;102353.13;10299516;28;20027;-82
2023/05/28 21:07:11;;;;;;;11.10;5.75;;;;;;;13.04;100.00;102355.03;10300970;28;20027;-79
2023/05/28 21:12:12;;;;;;;15.88;6.30;;;;;;;12.92;100.00;102351.88;10316375;28;20041;-80
2023/05/28 21:17:12;;;;;;;10.68;4.65;;;;;;;12.90;100.00;102347.63;10290012;28;20085;-82
2023/05/28 21:22:13;;;;;;;18.60;4.75;;;;;;;12.76;100.00;102347.38;10280520;28;20190;-81
2023/05/28 21:27:13;;;;;;;5.28;3.22;;;;;;;12.70;100.00;102356.22;10277507;28;20045;-80
2023/05/28 21:32:14;;;;;;;12.43;4.07;;;;;;;12.68;100.00;102358.25;10281725;28;20114;-78
2023/05/28 21:37:14;;;;;;;7.28;2.85;;;;;;;12.61;100.00;102349.13;10301501;28;20049;-80
2023/05/28 21:42:15;;;;;;;15.98;5.03;;;;;;;12.47;100.00;102352.53;10304894;28;20043;-79
2023/05/28 21:47:15;;;;;;;7.03;3.55;;;;;;;12.45;100.00;102360.88;10286871;28;20474;-81
2023/05/28 21:52:16;;;;;;;17.50;4.80;;;;;;;12.28;100.00;102357.38;10288067;28;20043;-80
2023/05/28 21:57:17;;;;;;;8.43;3.78;;;;;;;12.31;100.00;102372.44;10303876;28;20042;-82
2023/05/28 22:02:17;;;;;;;14.73;3.42;;;;;;;12.26;100.00;102372.97;10318940;28;20039;-81
2023/05/28 22:07:18;;;;;;;19.73;5.03;;;;;;;12.22;100.00;102382.50;10308713;28;20034;-81
2023/05/28 22:12:18;;;;;;;4.68;3.47;;;;;;;12.13;100.00;102385.41;10307938;28;20045;-81
2023/05/28 22:17:18;;;;;;;8.73;4.47;;;;;;;12.00;100.00;102383.22;10288086;28;20091;-81
2023/05/28 22:22:19;;;;;;;12.57;3.88;;;;;;;12.00;100.00;102381.34;10289946;28;20122;-81
2023/05/28 22:27:19;;;;;;;6.97;3.70;;;;;;;11.93;100.00;102384.88;10306233;28;20134;-81
2023/05/28 22:32:20;;;;;;;19.77;4.47;;;;;;;11.89;98.03;102386.25;10305253;28;20047;-81
2023/05/28 22:37:20;;;;;;;10.13;4.03;;;;;;;11.83;100.00;102395.88;10290392;28;20038;-82
2023/05/28 22:42:22;;;;;;;10.10;4.00;;;;;;;11.83;97.39;102404.03;10288178;28;20433;-81